sensor_id;sensor_type;location;lat;lon;timestamp;pressure;altitude;pressure_sealevel;temperature;humidity
28588;BME280;15787;49.662;10.162;2024-01-10T00:02:05;100238.97;;;-6.01;70.57
28588;BME280;15787;49.662;10.162;2024-01-10T00:04:40;100237.03;;;-5.82;70.34
28588;BME280;15787;49.662;10.162;2024-01-10T00:07:13;100249.41;;;-6.08;70.81
28588;BME280;15787;49.662;10.162;2024-01-10T00:09:46;100246.53;;;-6.17;70.88
28588;BME280;15787;49.662;10.162;2024-01-10T00:12:19;100242.00;;;-6.03;70.81
28588;BME280;15787;49.662;10.162;2024-01-10T00:14:54;100241.53;;;-5.91;71.14
28588;BME280;15787;49.662;10.162;2024-01-10T00:17:26;100233.91;;;-5.89;70.73
28588;BME280;15787;49.662;10.162;2024-01-10T00:20:07;100229.91;;;-5.59;71.01
28588;BME280;15787;49.662;10.162;2024-01-10T00:22:43;100228.28;;;-5.28;71.19
28588;BME280;15787;49.662;10.162;2024-01-10T00:25:16;100238.72;;;-6.05;71.12
28588;BME280;15787;49.662;10.162;2024-01-10T00:27:49;100242.06;;;-6.08;71.46
28588;BME280;15787;49.662;10.162;2024-01-10T00:30:24;100230.91;;;-5.74;71.27
28588;BME280;15787;49.662;10.162;2024-01-10T00:33:00;100227.28;;;-5.51;71.24
28588;BME280;15787;49.662;10.162;2024-01-10T00:35:33;100223.34;;;-5.77;71.24
28588;BME280;15787;49.662;10.162;2024-01-10T00:38:06;100217.69;;;-5.81;71.47
28588;BME280;15787;49.662;10.162;2024-01-10T00:40:39;100219.88;;;-5.64;71.38
28588;BME280;15787;49.662;10.162;2024-01-10T00:43:12;100217.91;;;-5.58;71.12
28588;BME280;15787;49.662;10.162;2024-01-10T00:45:46;100216.41;;;-5.51;71.15
28588;BME280;15787;49.662;10.162;2024-01-10T00:48:19;100215.06;;;-5.67;70.66
28588;BME280;15787;49.662;10.162;2024-01-10T00:50:52;100220.97;;;-5.46;71.28
28588;BME280;15787;49.662;10.162;2024-01-10T00:53:25;100226.59;;;-6.12;72.17
28588;BME280;15787;49.662;10.162;2024-01-10T00:55:58;100224.63;;;-5.69;72.34
28588;BME280;15787;49.662;10.162;2024-01-10T00:58:31;100219.97;;;-5.69;72.13
28588;BME280;15787;49.662;10.162;2024-01-10T01:01:05;100219.44;;;-5.71;72.66
28588;BME280;15787;49.662;10.162;2024-01-10T01:03:38;100218.41;;;-5.89;72.43
28588;BME280;15787;49.662;10.162;2024-01-10T01:06:11;100231.22;;;-6.31;72.34
28588;BME280;15787;49.662;10.162;2024-01-10T01:08:44;100222.88;;;-5.98;72.61
28588;BME280;15787;49.662;10.162;2024-01-10T01:11:17;100225.06;;;-5.81;72.62
28588;BME280;15787;49.662;10.162;2024-01-10T01:13:50;100216.56;;;-5.42;72.51
28588;BME280;15787;49.662;10.162;2024-01-10T01:16:24;100217.38;;;-5.60;71.89
28588;BME280;15787;49.662;10.162;2024-01-10T01:18:56;100219.03;;;-5.78;71.64
28588;BME280;15787;49.662;10.162;2024-01-10T01:21:29;100218.72;;;-5.77;71.77
28588;BME280;15787;49.662;10.162;2024-01-10T01:24:02;100224.66;;;-5.75;72.07
28588;BME280;15787;49.662;10.162;2024-01-10T01:26:35;100226.13;;;-5.82;72.45
28588;BME280;15787;49.662;10.162;2024-01-10T01:29:08;100225.28;;;-5.78;72.22
28588;BME280;15787;49.662;10.162;2024-01-10T01:31:42;100220.94;;;-5.60;72.17
28588;BME280;15787;49.662;10.162;2024-01-10T01:34:15;100224.00;;;-5.66;72.15
28588;BME280;15787;49.662;10.162;2024-01-10T01:36:48;100213.78;;;-5.88;72.46
28588;BME280;15787;49.662;10.162;2024-01-10T01:39:23;100222.28;;;-6.13;72.32
28588;BME280;15787;49.662;10.162;2024-01-10T01:41:55;100218.31;;;-6.21;72.71
28588;BME280;15787;49.662;10.162;2024-01-10T01:44:28;100205.75;;;-6.17;72.77
28588;BME280;15787;49.662;10.162;2024-01-10T01:47:04;100209.56;;;-5.99;73.68
28588;BME280;15787;49.662;10.162;2024-01-10T01:49:37;100209.50;;;-6.13;73.95
28588;BME280;15787;49.662;10.162;2024-01-10T01:52:10;100218.69;;;-6.09;73.79
28588;BME280;15787;49.662;10.162;2024-01-10T01:54:44;100211.97;;;-5.79;74.02
28588;BME280;15787;49.662;10.162;2024-01-10T01:57:16;100209.47;;;-5.76;74.34
28588;BME280;15787;49.662;10.162;2024-01-10T01:59:49;100209.28;;;-6.16;74.82
28588;BME280;15787;49.662;10.162;2024-01-10T02:02:24;100212.91;;;-5.70;74.95
28588;BME280;15787;49.662;10.162;2024-01-10T02:04:57;100209.38;;;-5.52;74.25
28588;BME280;15787;49.662;10.162;2024-01-10T02:07:31;100213.75;;;-5.24;73.86
28588;BME280;15787;49.662;10.162;2024-01-10T02:10:05;100213.44;;;-5.36;73.32
28588;BME280;15787;49.662;10.162;2024-01-10T02:12:38;100205.41;;;-5.27;73.20
28588;BME280;15787;49.662;10.162;2024-01-10T02:15:11;100201.13;;;-5.47;73.18
28588;BME280;15787;49.662;10.162;2024-01-10T02:17:46;100202.91;;;-5.10;73.14
28588;BME280;15787;49.662;10.162;2024-01-10T02:20:19;100207.13;;;-5.18;72.99
28588;BME280;15787;49.662;10.162;2024-01-10T02:22:52;100199.19;;;-5.00;73.03
28588;BME280;15787;49.662;10.162;2024-01-10T02:25:26;100202.72;;;-5.00;72.43
28588;BME280;15787;49.662;10.162;2024-01-10T02:27:59;100196.59;;;-4.92;72.47
28588;BME280;15787;49.662;10.162;2024-01-10T02:30:32;100194.88;;;-4.88;71.90
28588;BME280;15787;49.662;10.162;2024-01-10T02:33:05;100198.59;;;-4.97;72.31
28588;BME280;15787;49.662;10.162;2024-01-10T02:35:38;100204.81;;;-5.11;72.31
28588;BME280;15787;49.662;10.162;2024-01-10T02:38:11;100197.19;;;-5.41;72.24
28588;BME280;15787;49.662;10.162;2024-01-10T02:40:45;100192.94;;;-5.47;73.20
28588;BME280;15787;49.662;10.162;2024-01-10T02:43:18;100189.59;;;-4.98;73.06
28588;BME280;15787;49.662;10.162;2024-01-10T02:45:50;100195.44;;;-5.18;72.69
28588;BME280;15787;49.662;10.162;2024-01-10T02:48:23;100193.28;;;-5.35;73.13
28588;BME280;15787;49.662;10.162;2024-01-10T02:50:56;100203.31;;;-5.17;72.85
28588;BME280;15787;49.662;10.162;2024-01-10T02:53:29;100198.13;;;-5.32;73.20
28588;BME280;15787;49.662;10.162;2024-01-10T02:56:03;100196.22;;;-5.63;73.27
28588;BME280;15787;49.662;10.162;2024-01-10T02:58:37;100199.00;;;-5.50;73.53
28588;BME280;15787;49.662;10.162;2024-01-10T03:01:09;100200.97;;;-5.23;73.25
28588;BME280;15787;49.662;10.162;2024-01-10T03:03:43;100205.09;;;-5.26;73.19
28588;BME280;15787;49.662;10.162;2024-01-10T03:06:15;100199.31;;;-5.38;72.87
28588;BME280;15787;49.662;10.162;2024-01-10T03:08:49;100202.47;;;-5.31;72.91
28588;BME280;15787;49.662;10.162;2024-01-10T03:11:23;100200.63;;;-5.35;72.54
28588;BME280;15787;49.662;10.162;2024-01-10T03:14:01;100198.50;;;-5.38;72.39
28588;BME280;15787;49.662;10.162;2024-01-10T03:16:34;100196.47;;;-5.46;71.90
28588;BME280;15787;49.662;10.162;2024-01-10T03:19:07;100192.50;;;-5.54;71.94
28588;BME280;15787;49.662;10.162;2024-01-10T03:21:40;100189.50;;;-5.52;71.75
28588;BME280;15787;49.662;10.162;2024-01-10T03:24:13;100184.06;;;-5.52;71.13
28588;BME280;15787;49.662;10.162;2024-01-10T03:26:47;100183.09;;;-5.61;71.60
28588;BME280;15787;49.662;10.162;2024-01-10T03:29:20;100182.38;;;-5.99;72.01
28588;BME280;15787;49.662;10.162;2024-01-10T03:31:53;100176.78;;;-6.26;72.11
28588;BME280;15787;49.662;10.162;2024-01-10T03:34:26;100170.59;;;-5.95;72.49
28588;BME280;15787;49.662;10.162;2024-01-10T03:36:58;100169.66;;;-5.85;72.56
28588;BME280;15787;49.662;10.162;2024-01-10T03:39:31;100169.44;;;-6.07;71.98
28588;BME280;15787;49.662;10.162;2024-01-10T03:42:06;100165.78;;;-5.65;72.24
28588;BME280;15787;49.662;10.162;2024-01-10T03:44:38;100171.13;;;-6.11;71.46
28588;BME280;15787;49.662;10.162;2024-01-10T03:47:11;100173.78;;;-6.25;71.12
28588;BME280;15787;49.662;10.162;2024-01-10T03:49:44;100172.38;;;-6.04;70.91
28588;BME280;15787;49.662;10.162;2024-01-10T03:52:18;100174.38;;;-5.77;70.52
28588;BME280;15787;49.662;10.162;2024-01-10T03:54:50;100167.97;;;-6.00;70.64
28588;BME280;15787;49.662;10.162;2024-01-10T03:57:25;100168.34;;;-5.88;69.72
28588;BME280;15787;49.662;10.162;2024-01-10T03:59:58;100165.03;;;-6.22;69.97
28588;BME280;15787;49.662;10.162;2024-01-10T04:02:30;100169.38;;;-6.02;69.98
28588;BME280;15787;49.662;10.162;2024-01-10T04:05:06;100161.06;;;-5.92;70.04
28588;BME280;15787;49.662;10.162;2024-01-10T04:07:40;100159.78;;;-5.81;69.71
28588;BME280;15787;49.662;10.162;2024-01-10T04:10:13;100163.28;;;-6.13;70.10
28588;BME280;15787;49.662;10.162;2024-01-10T04:12:48;100163.00;;;-5.79;69.52
28588;BME280;15787;49.662;10.162;2024-01-10T04:15:21;100163.06;;;-5.84;69.08
28588;BME280;15787;49.662;10.162;2024-01-10T04:17:54;100164.16;;;-5.99;69.32
28588;BME280;15787;49.662;10.162;2024-01-10T04:20:27;100155.63;;;-5.92;69.40
28588;BME280;15787;49.662;10.162;2024-01-10T04:23:00;100156.38;;;-6.05;69.54
28588;BME280;15787;49.662;10.162;2024-01-10T04:25:33;100156.72;;;-6.12;69.48
28588;BME280;15787;49.662;10.162;2024-01-10T04:28:07;100150.84;;;-5.68;69.73
28588;BME280;15787;49.662;10.162;2024-01-10T04:30:40;100158.50;;;-5.70;69.28
28588;BME280;15787;49.662;10.162;2024-01-10T04:33:12;100156.53;;;-5.64;68.90
28588;BME280;15787;49.662;10.162;2024-01-10T04:35:46;100158.13;;;-5.82;68.47
28588;BME280;15787;49.662;10.162;2024-01-10T04:38:18;100154.91;;;-5.84;68.91
28588;BME280;15787;49.662;10.162;2024-01-10T04:40:52;100154.16;;;-5.71;69.43
28588;BME280;15787;49.662;10.162;2024-01-10T04:43:27;100154.59;;;-5.32;69.27
28588;BME280;15787;49.662;10.162;2024-01-10T04:46:00;100158.66;;;-5.48;69.75
28588;BME280;15787;49.662;10.162;2024-01-10T04:48:33;100148.19;;;-5.87;71.42
28588;BME280;15787;49.662;10.162;2024-01-10T04:51:06;100153.31;;;-5.53;71.65
28588;BME280;15787;49.662;10.162;2024-01-10T04:53:39;100150.31;;;-5.38;71.25
28588;BME280;15787;49.662;10.162;2024-01-10T04:56:15;100154.81;;;-5.79;71.91
28588;BME280;15787;49.662;10.162;2024-01-10T04:58:49;100159.69;;;-5.44;71.75
28588;BME280;15787;49.662;10.162;2024-01-10T05:01:22;100152.75;;;-5.36;71.86
28588;BME280;15787;49.662;10.162;2024-01-10T05:03:55;100158.59;;;-5.75;71.36
28588;BME280;15787;49.662;10.162;2024-01-10T05:06:27;100168.31;;;-6.62;72.80
28588;BME280;15787;49.662;10.162;2024-01-10T05:09:01;100160.19;;;-5.74;73.69
28588;BME280;15787;49.662;10.162;2024-01-10T05:11:34;100155.88;;;-5.75;73.20
28588;BME280;15787;49.662;10.162;2024-01-10T05:14:08;100168.66;;;-5.76;72.72
28588;BME280;15787;49.662;10.162;2024-01-10T05:16:41;100168.56;;;-5.38;72.64
28588;BME280;15787;49.662;10.162;2024-01-10T05:19:14;100167.94;;;-5.49;72.38
28588;BME280;15787;49.662;10.162;2024-01-10T05:21:47;100175.88;;;-5.85;72.16
28588;BME280;15787;49.662;10.162;2024-01-10T05:24:20;100169.31;;;-5.65;72.37
28588;BME280;15787;49.662;10.162;2024-01-10T05:26:53;100174.97;;;-6.31;72.58
28588;BME280;15787;49.662;10.162;2024-01-10T05:29:27;100175.78;;;-5.93;73.64
28588;BME280;15787;49.662;10.162;2024-01-10T05:32:00;100166.28;;;-5.63;72.93
28588;BME280;15787;49.662;10.162;2024-01-10T05:34:33;100175.97;;;-6.27;73.15
28588;BME280;15787;49.662;10.162;2024-01-10T05:37:06;100177.91;;;-5.90;73.70
28588;BME280;15787;49.662;10.162;2024-01-10T05:39:39;100187.69;;;-6.92;75.57
28588;BME280;15787;49.662;10.162;2024-01-10T05:42:12;100182.19;;;-6.45;75.91
28588;BME280;15787;49.662;10.162;2024-01-10T05:44:47;100185.88;;;-6.78;77.52
28588;BME280;15787;49.662;10.162;2024-01-10T05:47:20;100172.75;;;-6.29;76.79
28588;BME280;15787;49.662;10.162;2024-01-10T05:49:52;100176.19;;;-6.84;77.39
28588;BME280;15787;49.662;10.162;2024-01-10T05:52:25;100176.34;;;-6.15;76.83
28588;BME280;15787;49.662;10.162;2024-01-10T05:54:58;100176.44;;;-6.38;76.42
28588;BME280;15787;49.662;10.162;2024-01-10T05:57:33;100176.06;;;-6.13;76.13
28588;BME280;15787;49.662;10.162;2024-01-10T06:00:08;100175.25;;;-6.14;76.41
28588;BME280;15787;49.662;10.162;2024-01-10T06:02:43;100172.03;;;-5.84;76.02
28588;BME280;15787;49.662;10.162;2024-01-10T06:05:15;100177.00;;;-6.04;76.30
28588;BME280;15787;49.662;10.162;2024-01-10T06:07:48;100172.84;;;-6.15;76.31
28588;BME280;15787;49.662;10.162;2024-01-10T06:10:21;100179.16;;;-6.01;76.13
28588;BME280;15787;49.662;10.162;2024-01-10T06:12:54;100179.94;;;-6.19;76.02
28588;BME280;15787;49.662;10.162;2024-01-10T06:15:29;100176.13;;;-6.00;75.84
28588;BME280;15787;49.662;10.162;2024-01-10T06:18:02;100179.28;;;-6.30;75.78
28588;BME280;15787;49.662;10.162;2024-01-10T06:20:35;100180.78;;;-6.00;75.06
28588;BME280;15787;49.662;10.162;2024-01-10T06:23:09;100181.34;;;-6.22;75.93
28588;BME280;15787;49.662;10.162;2024-01-10T06:25:42;100185.56;;;-6.53;76.26
28588;BME280;15787;49.662;10.162;2024-01-10T06:28:15;100189.16;;;-6.15;76.51
28588;BME280;15787;49.662;10.162;2024-01-10T06:30:49;100184.88;;;-6.21;76.58
28588;BME280;15787;49.662;10.162;2024-01-10T06:33:22;100194.56;;;-6.34;76.08
28588;BME280;15787;49.662;10.162;2024-01-10T06:35:55;100187.22;;;-5.96;75.93
28588;BME280;15787;49.662;10.162;2024-01-10T06:38:28;100183.69;;;-5.97;75.28
28588;BME280;15787;49.662;10.162;2024-01-10T06:41:07;100196.72;;;-6.55;76.04
28588;BME280;15787;49.662;10.162;2024-01-10T06:43:40;100199.91;;;-6.48;75.89
28588;BME280;15787;49.662;10.162;2024-01-10T06:46:15;100197.38;;;-6.20;76.13
28588;BME280;15787;49.662;10.162;2024-01-10T06:48:48;100194.88;;;-5.98;76.36
28588;BME280;15787;49.662;10.162;2024-01-10T06:51:21;100206.47;;;-6.30;76.41
28588;BME280;15787;49.662;10.162;2024-01-10T06:53:54;100202.84;;;-6.44;76.78
28588;BME280;15787;49.662;10.162;2024-01-10T06:56:34;100204.44;;;-7.14;78.27
28588;BME280;15787;49.662;10.162;2024-01-10T06:59:07;100203.56;;;-6.57;78.67
28588;BME280;15787;49.662;10.162;2024-01-10T07:01:41;100202.81;;;-6.86;78.31
28588;BME280;15787;49.662;10.162;2024-01-10T07:04:15;100202.47;;;-6.56;78.96
28588;BME280;15787;49.662;10.162;2024-01-10T07:06:51;100196.34;;;-6.24;77.55
28588;BME280;15787;49.662;10.162;2024-01-10T07:09:24;100211.75;;;-6.20;76.83
28588;BME280;15787;49.662;10.162;2024-01-10T07:11:57;100204.28;;;-6.28;77.26
28588;BME280;15787;49.662;10.162;2024-01-10T07:14:30;100200.47;;;-6.08;76.89
28588;BME280;15787;49.662;10.162;2024-01-10T07:17:04;100210.00;;;-6.29;76.69
28588;BME280;15787;49.662;10.162;2024-01-10T07:19:37;100216.66;;;-6.41;76.86
28588;BME280;15787;49.662;10.162;2024-01-10T07:22:12;100220.53;;;-6.47;77.47
28588;BME280;15787;49.662;10.162;2024-01-10T07:24:44;100216.44;;;-6.68;77.63
28588;BME280;15787;49.662;10.162;2024-01-10T07:27:18;100220.22;;;-6.21;77.91
28588;BME280;15787;49.662;10.162;2024-01-10T07:29:51;100236.13;;;-7.33;78.74
28588;BME280;15787;49.662;10.162;2024-01-10T07:32:25;100232.56;;;-7.29;80.35
28588;BME280;15787;49.662;10.162;2024-01-10T07:34:58;100224.78;;;-6.59;80.97
28588;BME280;15787;49.662;10.162;2024-01-10T07:37:31;100226.50;;;-6.45;81.01
28588;BME280;15787;49.662;10.162;2024-01-10T07:40:05;100223.59;;;-6.29;80.45
28588;BME280;15787;49.662;10.162;2024-01-10T07:42:40;100232.75;;;-6.44;80.06
28588;BME280;15787;49.662;10.162;2024-01-10T07:45:13;100224.69;;;-6.30;79.80
28588;BME280;15787;49.662;10.162;2024-01-10T07:47:47;100222.34;;;-6.18;79.38
28588;BME280;15787;49.662;10.162;2024-01-10T07:50:20;100221.66;;;-5.73;78.35
28588;BME280;15787;49.662;10.162;2024-01-10T07:52:58;100226.44;;;-5.84;77.10
28588;BME280;15787;49.662;10.162;2024-01-10T07:55:32;100227.22;;;-5.97;76.17
28588;BME280;15787;49.662;10.162;2024-01-10T07:58:06;100225.78;;;-5.76;75.98
28588;BME280;15787;49.662;10.162;2024-01-10T08:00:39;100229.41;;;-5.99;76.05
28588;BME280;15787;49.662;10.162;2024-01-10T08:03:13;100236.34;;;-5.88;75.72
28588;BME280;15787;49.662;10.162;2024-01-10T08:05:46;100243.00;;;-5.99;75.82
28588;BME280;15787;49.662;10.162;2024-01-10T08:08:19;100233.91;;;-5.89;76.50
28588;BME280;15787;49.662;10.162;2024-01-10T08:10:52;100251.34;;;-6.32;77.25
28588;BME280;15787;49.662;10.162;2024-01-10T08:13:25;100248.53;;;-5.85;78.29
28588;BME280;15787;49.662;10.162;2024-01-10T08:15:57;100240.19;;;-5.75;76.91
28588;BME280;15787;49.662;10.162;2024-01-10T08:18:32;100249.91;;;-6.49;77.30
28588;BME280;15787;49.662;10.162;2024-01-10T08:21:05;100244.56;;;-5.93;77.78
28588;BME280;15787;49.662;10.162;2024-01-10T08:23:38;100240.38;;;-5.85;77.65
28588;BME280;15787;49.662;10.162;2024-01-10T08:26:11;100239.41;;;-5.43;76.79
28588;BME280;15787;49.662;10.162;2024-01-10T08:28:44;100242.47;;;-5.31;76.83
28588;BME280;15787;49.662;10.162;2024-01-10T08:31:18;100247.69;;;-5.16;75.95
28588;BME280;15787;49.662;10.162;2024-01-10T08:33:52;100239.06;;;-5.37;75.25
28588;BME280;15787;49.662;10.162;2024-01-10T08:36:25;100242.94;;;-5.24;75.49
28588;BME280;15787;49.662;10.162;2024-01-10T08:38:58;100239.72;;;-5.45;75.63
28588;BME280;15787;49.662;10.162;2024-01-10T08:41:32;100246.88;;;-5.17;75.60
28588;BME280;15787;49.662;10.162;2024-01-10T08:44:05;100242.88;;;-5.56;76.37
28588;BME280;15787;49.662;10.162;2024-01-10T08:46:38;100243.38;;;-5.03;76.42
28588;BME280;15787;49.662;10.162;2024-01-10T08:49:12;100246.34;;;-4.86;75.16
28588;BME280;15787;49.662;10.162;2024-01-10T08:51:45;100242.31;;;-4.62;74.38
28588;BME280;15787;49.662;10.162;2024-01-10T08:54:19;100244.84;;;-4.65;74.30
28588;BME280;15787;49.662;10.162;2024-01-10T08:56:54;100244.84;;;-4.52;74.30
28588;BME280;15787;49.662;10.162;2024-01-10T08:59:27;100248.41;;;-4.37;73.75
28588;BME280;15787;49.662;10.162;2024-01-10T09:02:00;100252.41;;;-4.08;73.81
28588;BME280;15787;49.662;10.162;2024-01-10T09:04:35;100243.56;;;-3.91;73.31
28588;BME280;15787;49.662;10.162;2024-01-10T09:07:09;100244.88;;;-3.89;72.74
28588;BME280;15787;49.662;10.162;2024-01-10T09:09:42;100250.81;;;-3.73;72.56
28588;BME280;15787;49.662;10.162;2024-01-10T09:12:15;100250.09;;;-3.65;71.82
28588;BME280;15787;49.662;10.162;2024-01-10T09:14:48;100249.72;;;-3.28;72.59
28588;BME280;15787;49.662;10.162;2024-01-10T09:17:21;100264.56;;;-3.42;71.54
28588;BME280;15787;49.662;10.162;2024-01-10T09:19:55;100259.31;;;-3.16;70.95
28588;BME280;15787;49.662;10.162;2024-01-10T09:22:29;100260.91;;;-3.38;70.70
28588;BME280;15787;49.662;10.162;2024-01-10T09:25:02;100253.19;;;-2.91;70.26
28588;BME280;15787;49.662;10.162;2024-01-10T09:27:38;100265.03;;;-2.74;70.05
28588;BME280;15787;49.662;10.162;2024-01-10T09:30:13;100263.13;;;-3.17;69.85
28588;BME280;15787;49.662;10.162;2024-01-10T09:32:48;100266.44;;;-3.07;69.71
28588;BME280;15787;49.662;10.162;2024-01-10T09:35:23;100263.44;;;-2.97;70.07
28588;BME280;15787;49.662;10.162;2024-01-10T09:37:56;100267.53;;;-2.55;68.92
28588;BME280;15787;49.662;10.162;2024-01-10T09:40:30;100264.19;;;-2.52;68.94
28588;BME280;15787;49.662;10.162;2024-01-10T09:43:04;100254.78;;;-2.29;68.79
28588;BME280;15787;49.662;10.162;2024-01-10T09:45:43;100263.56;;;-2.40;68.18
28588;BME280;15787;49.662;10.162;2024-01-10T09:48:18;100263.38;;;-2.44;67.97
28588;BME280;15787;49.662;10.162;2024-01-10T09:50:52;100271.56;;;-2.52;67.59
28588;BME280;15787;49.662;10.162;2024-01-10T09:53:26;100271.00;;;-2.32;67.95
28588;BME280;15787;49.662;10.162;2024-01-10T09:56:03;100263.72;;;-2.45;67.01
28588;BME280;15787;49.662;10.162;2024-01-10T09:58:36;100260.97;;;-2.45;67.18
28588;BME280;15787;49.662;10.162;2024-01-10T10:01:12;100264.44;;;-2.23;67.38
28588;BME280;15787;49.662;10.162;2024-01-10T10:03:46;100259.34;;;-2.07;66.71
28588;BME280;15787;49.662;10.162;2024-01-10T10:06:22;100259.78;;;-2.22;66.87
28588;BME280;15787;49.662;10.162;2024-01-10T10:08:55;100261.91;;;-2.11;66.24
28588;BME280;15787;49.662;10.162;2024-01-10T10:11:28;100261.28;;;-2.08;66.50
28588;BME280;15787;49.662;10.162;2024-01-10T10:14:14;100251.69;;;-1.71;65.98
28588;BME280;15787;49.662;10.162;2024-01-10T10:16:47;100246.22;;;-1.28;65.56
28588;BME280;15787;49.662;10.162;2024-01-10T10:19:22;100239.75;;;-0.51;64.13
28588;BME280;15787;49.662;10.162;2024-01-10T10:22:12;100236.63;;;-0.04;62.24
28588;BME280;15787;49.662;10.162;2024-01-10T10:24:48;100239.13;;;0.10;60.86
28588;BME280;15787;49.662;10.162;2024-01-10T10:27:20;100239.25;;;0.14;60.01
28588;BME280;15787;49.662;10.162;2024-01-10T10:29:55;100242.81;;;0.14;59.41
28588;BME280;15787;49.662;10.162;2024-01-10T10:32:28;100243.84;;;0.30;59.04
28588;BME280;15787;49.662;10.162;2024-01-10T10:35:04;100249.50;;;0.46;59.02
28588;BME280;15787;49.662;10.162;2024-01-10T10:37:42;100250.59;;;0.53;58.74
28588;BME280;15787;49.662;10.162;2024-01-10T10:40:15;100253.19;;;0.29;58.30
28588;BME280;15787;49.662;10.162;2024-01-10T10:42:56;100243.03;;;0.50;57.76
28588;BME280;15787;49.662;10.162;2024-01-10T10:45:30;100238.06;;;0.64;57.86
28588;BME280;15787;49.662;10.162;2024-01-10T10:48:06;100238.34;;;0.30;57.49
28588;BME280;15787;49.662;10.162;2024-01-10T10:50:48;100241.28;;;0.25;58.01
28588;BME280;15787;49.662;10.162;2024-01-10T10:53:25;100233.69;;;1.17;57.83
28588;BME280;15787;49.662;10.162;2024-01-10T10:56:00;100233.38;;;0.65;57.06
28588;BME280;15787;49.662;10.162;2024-01-10T10:58:36;100231.44;;;0.66;57.34
28588;BME280;15787;49.662;10.162;2024-01-10T11:01:12;100224.06;;;0.90;57.51
28588;BME280;15787;49.662;10.162;2024-01-10T11:03:46;100217.31;;;0.88;56.74
28588;BME280;15787;49.662;10.162;2024-01-10T11:06:21;100218.34;;;0.83;56.75
28588;BME280;15787;49.662;10.162;2024-01-10T11:09:00;100226.06;;;1.59;56.81
28588;BME280;15787;49.662;10.162;2024-01-10T11:11:48;100211.16;;;1.03;56.55
28588;BME280;15787;49.662;10.162;2024-01-10T11:14:32;100222.84;;;1.45;56.14
28588;BME280;15787;49.662;10.162;2024-01-10T11:17:29;100221.28;;;1.80;55.70
28588;BME280;15787;49.662;10.162;2024-01-10T11:20:21;100223.81;;;1.73;56.21
28588;BME280;15787;49.662;10.162;2024-01-10T11:23:16;100221.03;;;1.04;55.76
28588;BME280;15787;49.662;10.162;2024-01-10T11:25:56;100222.09;;;1.11;56.30
28588;BME280;15787;49.662;10.162;2024-01-10T11:28:30;100224.97;;;0.61;56.70
28588;BME280;15787;49.662;10.162;2024-01-10T11:31:06;100213.13;;;1.02;56.60
28588;BME280;15787;49.662;10.162;2024-01-10T11:33:40;100213.31;;;0.97;56.66
28588;BME280;15787;49.662;10.162;2024-01-10T11:36:16;100218.38;;;0.95;57.37
28588;BME280;15787;49.662;10.162;2024-01-10T11:38:54;100212.69;;;1.12;56.70
28588;BME280;15787;49.662;10.162;2024-01-10T11:41:30;100211.03;;;1.56;57.11
28588;BME280;15787;49.662;10.162;2024-01-10T11:44:27;100207.19;;;0.80;57.40
28588;BME280;15787;49.662;10.162;2024-01-10T11:47:00;100207.34;;;0.62;57.89
28588;BME280;15787;49.662;10.162;2024-01-10T11:49:33;100198.34;;;1.07;57.43
28588;BME280;15787;49.662;10.162;2024-01-10T11:52:06;100204.19;;;1.05;57.53
28588;BME280;15787;49.662;10.162;2024-01-10T11:54:42;100202.31;;;1.42;57.25
28588;BME280;15787;49.662;10.162;2024-01-10T11:57:22;100203.75;;;1.15;56.56
28588;BME280;15787;49.662;10.162;2024-01-10T12:00:01;100198.75;;;1.54;57.03
28588;BME280;15787;49.662;10.162;2024-01-10T12:02:38;100193.16;;;1.74;56.01
28588;BME280;15787;49.662;10.162;2024-01-10T12:09:17;100200.69;;;2.02;56.36
28588;BME280;15787;49.662;10.162;2024-01-10T12:11:50;100205.06;;;1.78;55.99
28588;BME280;15787;49.662;10.162;2024-01-10T12:14:25;100205.06;;;1.66;56.86
28588;BME280;15787;49.662;10.162;2024-01-10T12:16:59;100206.66;;;1.55;56.55
28588;BME280;15787;49.662;10.162;2024-01-10T12:19:33;100199.28;;;1.23;56.83
28588;BME280;15787;49.662;10.162;2024-01-10T12:22:06;100193.50;;;1.49;56.79
28588;BME280;15787;49.662;10.162;2024-01-10T12:24:43;100193.22;;;0.85;57.11
28588;BME280;15787;49.662;10.162;2024-01-10T12:27:18;100193.97;;;0.94;57.64
28588;BME280;15787;49.662;10.162;2024-01-10T12:29:53;100197.19;;;0.96;57.49
28588;BME280;15787;49.662;10.162;2024-01-10T12:32:26;100188.88;;;1.28;57.38
28588;BME280;15787;49.662;10.162;2024-01-10T12:35:00;100192.13;;;0.65;58.21
28588;BME280;15787;49.662;10.162;2024-01-10T12:37:33;100195.78;;;0.36;58.83
28588;BME280;15787;49.662;10.162;2024-01-10T12:40:08;100194.56;;;0.46;59.05
28588;BME280;15787;49.662;10.162;2024-01-10T12:42:42;100187.88;;;0.55;59.47
28588;BME280;15787;49.662;10.162;2024-01-10T12:45:24;100193.00;;;0.78;59.00
28588;BME280;15787;49.662;10.162;2024-01-10T12:47:57;100191.03;;;0.78;58.52
28588;BME280;15787;49.662;10.162;2024-01-10T12:50:30;100191.50;;;0.80;58.82
28588;BME280;15787;49.662;10.162;2024-01-10T12:53:04;100180.06;;;0.78;58.87
28588;BME280;15787;49.662;10.162;2024-01-10T12:55:37;100198.22;;;0.71;58.81
28588;BME280;15787;49.662;10.162;2024-01-10T12:58:10;100197.28;;;0.67;58.88
28588;BME280;15787;49.662;10.162;2024-01-10T13:00:44;100192.41;;;0.84;58.76
28588;BME280;15787;49.662;10.162;2024-01-10T13:03:18;100192.06;;;0.74;58.88
28588;BME280;15787;49.662;10.162;2024-01-10T13:05:51;100194.00;;;0.73;59.31
28588;BME280;15787;49.662;10.162;2024-01-10T13:08:24;100183.16;;;0.56;59.33
28588;BME280;15787;49.662;10.162;2024-01-10T13:10:57;100186.03;;;0.59;59.10
28588;BME280;15787;49.662;10.162;2024-01-10T13:13:31;100181.91;;;0.86;59.56
28588;BME280;15787;49.662;10.162;2024-01-10T13:16:06;100191.22;;;0.94;59.25
28588;BME280;15787;49.662;10.162;2024-01-10T13:18:39;100173.09;;;0.93;59.16
28588;BME280;15787;49.662;10.162;2024-01-10T13:21:14;100169.66;;;0.84;59.56
28588;BME280;15787;49.662;10.162;2024-01-10T13:23:47;100171.47;;;0.92;58.88